Time;durP1;ratioP1;P1;durP2;ratioP2;P2;SDS_P1;SDS_P2;PMS_P1;PMS_P2;Temp;Humidity;BMP_temperature;BMP_pressure;BME280_temperature;BME280_humidity;BME280_pressure;Samples;Min_cycle;Max_cycle;Signal;HPM_P1;HPM_P2
2023/12/10 00:00:05;;;;;;;;;5.67;3.00;;;;;-147.47;100.00;64613.53;4919261;28;28869;-81
2023/12/10 00:02:32;;;;;;;;;3.00;3.00;;;;;-147.47;100.00;64613.53;4914694;29;28575;-81
2023/12/10 00:04:57;;;;;;;;;5.00;3.67;;;;;-147.47;100.00;64613.53;4912072;29;28401;-80
2023/12/10 00:07:22;;;;;;;;;3.67;2.00;;;;;-147.47;100.00;64613.53;4915827;29;28424;-81
2023/12/10 00:09:48;;;;;;;;;8.67;3.00;;;;;-147.47;100.00;64613.53;4915293;29;28712;-81
2023/12/10 00:12:13;;;;;;;;;3.00;3.00;;;;;-147.47;100.00;64613.53;4909875;29;28470;-80
2023/12/10 00:14:38;;;;;;;;;6.67;2.67;;;;;-147.47;100.00;64613.53;4903495;29;28368;-81
2023/12/10 00:17:04;;;;;;;;;7.33;2.00;;;;;-147.47;100.00;64613.53;4897200;29;29064;-81
2023/12/10 00:19:29;;;;;;;;;4.33;3.00;;;;;-147.47;100.00;64613.53;4906097;29;28581;-80
2023/12/10 00:21:55;;;;;;;;;2.67;2.00;;;;;-147.47;100.00;64613.53;4902365;29;28968;-79
2023/12/10 00:24:22;;;;;;;;;6.67;1.00;;;;;-147.47;100.00;64613.53;4910309;29;28579;-80
2023/12/10 00:26:47;;;;;;;;;8.00;5.00;;;;;-147.47;100.00;64613.53;4903914;29;28556;-81
2023/12/10 00:29:13;;;;;;;;;5.00;4.00;;;;;-147.47;100.00;64613.53;4911902;29;29192;-81
2023/12/10 00:31:42;;;;;;;;;5.00;2.67;;;;;-147.47;100.00;64613.53;4906876;29;27931;-81
2023/12/10 00:34:09;;;;;;;;;9.33;4.00;;;;;-147.47;100.00;64613.53;4879770;29;28859;-81
2023/12/10 00:36:34;;;;;;;;;8.00;3.67;;;;;-147.47;100.00;64613.53;4895047;29;28611;-80
2023/12/10 00:39:00;;;;;;;;;7.33;3.00;;;;;-147.47;100.00;64613.53;4896835;29;28926;-81
2023/12/10 00:41:26;;;;;;;;;3.00;2.00;;;;;-147.47;100.00;64613.53;4896127;29;28657;-80
2023/12/10 00:43:51;;;;;;;;;4.00;4.00;;;;;-147.47;100.00;64613.53;4896416;29;28555;-81
2023/12/10 00:46:16;;;;;;;;;7.00;2.67;;;;;-147.47;100.00;64613.53;4879318;29;29140;-81
2023/12/10 00:48:43;;;;;;;;;2.67;2.67;;;;;-147.47;100.00;64613.53;4879596;29;30055;-82
2023/12/10 00:51:17;;;;;;;;;5.00;5.00;;;;;-147.47;100.00;64613.53;4896459;29;28554;-80
2023/12/10 00:53:43;;;;;;;;;4.67;2.00;;;;;-147.47;100.00;64613.53;4895828;29;28596;-81
2023/12/10 00:56:08;;;;;;;;;1.67;1.67;;;;;-147.47;100.00;64613.53;4895863;29;28776;-81
2023/12/10 00:58:34;;;;;;;;;2.67;2.67;;;;;-147.47;100.00;64613.53;4896795;29;28524;-81
2023/12/10 01:00:59;;;;;;;;;5.33;3.00;;;;;-147.47;100.00;64613.53;4896921;29;28572;-80
2023/12/10 01:03:25;;;;;;;;;3.33;1.33;;;;;-147.47;100.00;64613.53;4897589;29;28435;-81
2023/12/10 01:05:50;;;;;;;;;7.67;6.00;;;;;-147.47;100.00;64613.53;4898299;29;29043;-81
2023/12/10 01:08:16;;;;;;;;;7.00;3.00;;;;;-147.47;100.00;64613.53;4895307;29;28953;-81
2023/12/10 01:10:41;;;;;;;;;5.00;3.67;;;;;-147.47;100.00;64613.53;4903800;29;29129;-81
2023/12/10 01:13:08;;;;;;;;;5.67;2.67;;;;;-147.47;100.00;64613.53;4900438;29;28868;-81
2023/12/10 01:15:33;;;;;;;;;11.67;3.67;;;;;-147.47;100.00;64613.53;4910994;29;28877;-81
2023/12/10 01:18:02;;;;;;;;;5.67;3.33;;;;;-147.47;100.00;64613.53;4877708;29;29893;-81
2023/12/10 01:20:37;;;;;;;;;3.00;3.00;;;;;-147.47;100.00;64613.53;4895301;29;28585;-81
2023/12/10 01:23:04;;;;;;;;;9.67;4.00;;;;;-147.47;100.00;64613.53;4909716;29;28556;-81
2023/12/10 01:25:29;;;;;;;;;3.00;3.00;;;;;-147.47;100.00;64613.53;4891671;29;29271;-80
2023/12/10 01:27:55;;;;;;;;;5.00;4.00;;;;;-147.47;100.00;64613.53;4893667;29;28775;-81
2023/12/10 01:30:23;;;;;;;;;6.00;4.00;;;;;-147.47;100.00;64613.53;4902405;29;28512;-80
2023/12/10 01:32:50;;;;;;;;;5.67;2.67;;;;;-147.47;100.00;64613.53;4893226;29;28470;-78
2023/12/10 01:35:15;;;;;;;;;4.67;1.67;;;;;-147.47;100.00;64613.53;4903971;29;28549;-80
2023/12/10 01:37:41;;;;;;;;;4.00;2.67;;;;;-147.47;100.00;64613.53;4898249;29;29219;-80
2023/12/10 01:40:08;;;;;;;;;9.67;5.00;;;;;-147.47;100.00;64613.53;4907397;29;28593;-81
2023/12/10 01:42:34;;;;;;;;;5.00;3.00;;;;;-147.47;100.00;64613.53;4899443;29;28693;-80
2023/12/10 01:45:00;;;;;;;;;6.00;3.00;;;;;-147.47;100.00;64613.53;4909888;29;29274;-80
2023/12/10 01:47:28;;;;;;;;;4.67;2.33;;;;;-147.47;100.00;64613.53;4885636;29;30071;-79
2023/12/10 01:49:54;;;;;;;;;4.33;1.00;;;;;-147.47;100.00;64613.53;4907855;29;28475;-82
2023/12/10 01:52:22;;;;;;;;;9.33;3.00;;;;;-147.47;100.00;64613.53;4913852;29;28755;-81
2023/12/10 01:54:47;;;;;;;;;5.67;3.33;;;;;-147.47;100.00;64613.53;4902472;29;28586;-80
2023/12/10 01:57:13;;;;;;;;;5.33;2.00;;;;;-147.47;100.00;64613.53;4913794;29;28779;-80
2023/12/10 01:59:38;;;;;;;;;9.00;4.67;;;;;-147.47;100.00;64613.53;4913672;29;28480;-80
2023/12/10 02:02:04;;;;;;;;;4.67;3.00;;;;;-147.47;100.00;64613.53;4914694;29;28582;-80
2023/12/10 02:04:29;;;;;;;;;2.33;2.33;;;;;-147.47;100.00;64613.53;4904996;29;28765;-82
2023/12/10 02:06:55;;;;;;;;;4.67;2.67;;;;;-147.47;100.00;64613.53;4898734;29;28747;-81
2023/12/10 02:09:20;;;;;;;;;1.33;1.33;;;;;-147.47;100.00;64613.53;4880068;29;30094;-79
2023/12/10 02:11:45;;;;;;;;;7.67;2.67;;;;;-147.47;100.00;64613.53;4902998;29;28452;-80
2023/12/10 02:14:11;;;;;;;;;4.67;3.00;;;;;-147.47;100.00;64613.53;4904931;29;28605;-80
2023/12/10 02:16:36;;;;;;;;;3.67;3.00;;;;;-147.47;100.00;64613.53;4902378;29;29573;-80
2023/12/10 02:19:02;;;;;;;;;4.33;1.67;;;;;-147.47;100.00;64613.53;4904330;29;28425;-79
2023/12/10 02:21:31;;;;;;;;;7.67;3.33;;;;;-147.47;100.00;64613.53;4907245;29;28386;-80
2023/12/10 02:24:02;;;;;;;;;2.33;1.00;;;;;-147.47;100.00;64613.53;4900242;29;28451;-79
2023/12/10 02:26:28;;;;;;;;;3.00;3.00;;;;;-147.47;100.00;64613.53;4882648;29;29880;-78
2023/12/10 02:28:54;;;;;;;;;7.00;4.33;;;;;-147.47;100.00;64613.53;4918930;29;28514;-80
2023/12/10 02:31:19;;;;;;;;;4.67;0.67;;;;;-147.47;100.00;64613.53;4918491;29;28257;-79
2023/12/10 02:33:45;;;;;;;;;3.33;2.67;;;;;-147.47;100.00;64613.53;4896190;29;29518;-79
2023/12/10 02:36:11;;;;;;;;;9.00;4.67;;;;;-147.47;100.00;64613.53;4899774;29;29583;-79
2023/12/10 02:38:37;;;;;;;;;6.33;3.33;;;;;-147.47;100.00;64613.53;4902473;29;28727;-79
2023/12/10 02:41:02;;;;;;;;;6.67;2.00;;;;;-147.47;100.00;64613.53;4905007;29;28561;-78
2023/12/10 02:43:28;;;;;;;;;9.33;4.00;;;;;-147.47;100.00;64613.53;4886221;29;28355;-79
2023/12/10 02:45:53;;;;;;;;;5.33;3.00;;;;;-147.47;100.00;64613.53;4909388;29;28590;-79
2023/12/10 02:48:21;;;;;;;;;7.67;3.33;;;;;-147.47;100.00;64613.53;4905434;29;28889;-79
2023/12/10 02:50:48;;;;;;;;;7.00;3.00;;;;;-147.47;100.00;64613.53;4907579;29;28918;-80
2023/12/10 02:53:14;;;;;;;;;4.67;2.00;;;;;-147.47;100.00;64613.53;4918788;29;27900;-78
2023/12/10 02:55:39;;;;;;;;;4.00;2.67;;;;;-147.47;100.00;64613.53;4911934;29;28617;-81
2023/12/10 02:58:04;;;;;;;;;6.67;2.67;;;;;-147.47;100.00;64613.53;4905255;29;28708;-80
2023/12/10 03:00:30;;;;;;;;;8.33;4.67;;;;;-147.47;100.00;64613.53;4904485;29;28468;-80
2023/12/10 03:02:55;;;;;;;;;4.00;2.33;;;;;-147.47;100.00;64613.53;4898417;29;28753;-79
2023/12/10 03:05:21;;;;;;;;;5.33;1.00;;;;;-147.47;100.00;64613.53;4909149;29;29546;-80
2023/12/10 03:07:46;;;;;;;;;5.33;3.33;;;;;-147.47;100.00;64613.53;4906582;29;28880;-80
2023/12/10 03:10:12;;;;;;;;;2.00;2.00;;;;;-147.47;100.00;64613.53;4898175;29;28853;-81
2023/12/10 03:12:37;;;;;;;;;5.00;3.33;;;;;-147.47;100.00;64613.53;4912233;28;28895;-81
2023/12/10 03:15:03;;;;;;;;;4.33;2.67;;;;;-147.47;100.00;64613.53;4911569;29;28869;-79
2023/12/10 03:17:29;;;;;;;;;9.67;3.67;;;;;-147.47;100.00;64613.53;4912459;28;28657;-79
2023/12/10 03:19:54;;;;;;;;;4.67;1.67;;;;;-147.47;100.00;64613.53;4914918;28;28334;-80
2023/12/10 03:22:20;;;;;;;;;8.67;3.00;;;;;-147.47;100.00;64613.53;4911465;29;29706;-79
2023/12/10 03:24:45;;;;;;;;;4.33;2.00;;;;;-147.47;100.00;64613.53;4910933;29;28617;-79
2023/12/10 03:27:11;;;;;;;;;3.33;3.00;;;;;-147.47;100.00;64613.53;4902931;29;28898;-80
2023/12/10 03:29:36;;;;;;;;;4.67;2.00;;;;;-147.47;100.00;64613.53;4913661;28;28552;-80
2023/12/10 03:32:01;;;;;;;;;2.33;2.33;;;;;-147.47;100.00;64613.53;4896227;29;29407;-79
2023/12/10 03:34:27;;;;;;;;;6.00;3.33;;;;;-147.47;100.00;64613.53;4913148;29;28402;-79
2023/12/10 03:36:52;;;;;;;;;7.33;4.00;;;;;-147.47;100.00;64613.53;4910105;28;29243;-78
2023/12/10 03:39:18;;;;;;;;;8.00;3.00;;;;;-147.47;100.00;64613.53;4914025;28;28695;-79
2023/12/10 03:41:43;;;;;;;;;5.00;3.00;;;;;-147.47;100.00;64613.53;4912166;29;28439;-81
2023/12/10 03:44:08;;;;;;;;;8.33;4.00;;;;;-147.47;100.00;64613.53;4910799;29;28992;-80
2023/12/10 03:46:34;;;;;;;;;5.00;2.00;;;;;-147.47;100.00;64613.53;4911867;29;28438;-78
2023/12/10 03:48:59;;;;;;;;;3.00;1.67;;;;;-147.47;100.00;64613.53;4914748;29;28752;-78
2023/12/10 03:51:24;;;;;;;;;4.33;2.67;;;;;-147.47;100.00;64613.53;4916782;29;28544;-81
2023/12/10 03:53:51;;;;;;;;;4.00;3.67;;;;;-147.47;100.00;64613.53;4917741;29;28546;-80
2023/12/10 03:56:16;;;;;;;;;3.33;2.67;;;;;-147.47;100.00;64613.53;4917556;28;28597;-82
2023/12/10 03:58:42;;;;;;;;;8.00;3.67;;;;;-147.47;100.00;64613.53;4916589;28;28534;-81
2023/12/10 04:01:07;;;;;;;;;7.00;2.67;;;;;-147.47;100.00;64613.53;4898276;29;28597;-81
2023/12/10 04:03:33;;;;;;;;;5.33;2.00;;;;;-147.47;100.00;64613.53;4915411;28;28511;-81
2023/12/10 04:06:00;;;;;;;;;4.67;3.00;;;;;-147.47;100.00;64613.53;4915470;28;28549;-80
2023/12/10 04:08:26;;;;;;;;;5.00;2.00;;;;;-147.47;100.00;64613.53;4915562;29;28568;-81
2023/12/10 04:10:51;;;;;;;;;3.67;2.00;;;;;-147.47;100.00;64613.53;4915209;29;28600;-81
2023/12/10 04:13:16;;;;;;;;;1.33;1.33;;;;;-147.47;100.00;64613.53;4913953;29;28439;-82
2023/12/10 04:15:44;;;;;;;;;3.33;2.00;;;;;-147.47;100.00;64613.53;4916626;29;28746;-80
2023/12/10 04:18:10;;;;;;;;;2.00;2.00;;;;;-147.47;100.00;64613.53;4916682;29;28537;-79
2023/12/10 04:20:36;;;;;;;;;8.33;2.67;;;;;-147.47;100.00;64613.53;4905413;28;30144;-80
2023/12/10 04:23:02;;;;;;;;;4.33;1.67;;;;;-147.47;100.00;64613.53;4916478;29;28531;-79
2023/12/10 04:25:28;;;;;;;;;3.00;2.00;;;;;-147.47;100.00;64613.53;4917745;29;28499;-81
2023/12/10 04:27:53;;;;;;;;;1.67;1.00;;;;;-147.47;100.00;64613.53;4901605;29;28516;-83
2023/12/10 04:30:19;;;;;;;;;4.67;1.67;;;;;-147.47;100.00;64613.53;4905613;29;28503;-82
2023/12/10 04:32:45;;;;;;;;;4.67;4.00;;;;;-147.47;100.00;64613.53;4918649;29;28675;-79
2023/12/10 04:35:11;;;;;;;;;4.00;2.00;;;;;-147.47;100.00;64613.53;4900755;29;28615;-79
2023/12/10 04:37:36;;;;;;;;;9.33;3.33;;;;;-147.47;100.00;64613.53;4917837;28;28529;-80
2023/12/10 04:40:02;;;;;;;;;7.67;3.67;;;;;-147.47;100.00;64613.53;4915549;29;28749;-78
2023/12/10 04:42:27;;;;;;;;;4.33;2.33;;;;;-147.47;100.00;64613.53;4915349;29;28434;-79
2023/12/10 04:44:53;;;;;;;;;6.67;2.67;;;;;-147.47;100.00;64613.53;4915179;29;28625;-79
2023/12/10 04:47:18;;;;;;;;;5.00;3.67;;;;;-147.47;100.00;64613.53;4916594;29;28712;-80
2023/12/10 04:49:43;;;;;;;;;6.00;2.67;;;;;-147.47;100.00;64613.53;4915510;29;28730;-79
2023/12/10 04:52:09;;;;;;;;;3.67;2.67;;;;;-147.47;100.00;64613.53;4914142;29;28344;-79
2023/12/10 04:54:34;;;;;;;;;4.00;2.00;;;;;-147.47;100.00;64613.53;4914322;28;28509;-81
2023/12/10 04:56:59;;;;;;;;;7.67;2.00;;;;;-147.47;100.00;64613.53;4920781;28;28455;-80
2023/12/10 04:59:25;;;;;;;;;3.00;2.00;;;;;-147.47;100.00;64613.53;4911168;28;28505;-81
2023/12/10 05:01:51;;;;;;;;;6.00;4.00;;;;;-147.47;100.00;64613.53;4914105;29;28406;-80
2023/12/10 05:04:16;;;;;;;;;4.33;2.67;;;;;-147.47;100.00;64613.53;4915019;28;28772;-80
2023/12/10 05:06:41;;;;;;;;;5.33;2.67;;;;;-147.47;100.00;64613.53;4911589;28;28486;-79
2023/12/10 05:09:09;;;;;;;;;6.67;4.00;;;;;-147.47;100.00;64613.53;4914177;28;29202;-80
2023/12/10 05:11:35;;;;;;;;;8.33;2.00;;;;;-147.47;100.00;64613.53;4900686;29;30486;-78
2023/12/10 05:14:00;;;;;;;;;5.33;4.00;;;;;-147.47;100.00;64613.53;4914595;29;28531;-79
2023/12/10 05:16:25;;;;;;;;;3.67;2.00;;;;;-147.47;100.00;64613.53;4901201;29;28782;-80
2023/12/10 05:18:51;;;;;;;;;4.00;1.67;;;;;-147.47;100.00;64613.53;4900335;28;30390;-81
2023/12/10 05:21:16;;;;;;;;;5.00;4.00;;;;;-147.47;100.00;64613.53;4906776;29;28539;-79
2023/12/10 05:23:42;;;;;;;;;3.00;2.00;;;;;-147.47;100.00;64613.53;4912151;28;29109;-79
2023/12/10 05:26:07;;;;;;;;;7.67;3.67;;;;;-147.47;100.00;64613.53;4901636;28;28923;-79
2023/12/10 05:28:32;;;;;;;;;6.67;2.00;;;;;-147.47;100.00;64613.53;4905721;28;28813;-80
2023/12/10 05:30:58;;;;;;;;;2.00;2.00;;;;;-147.47;100.00;64613.53;4907815;29;29747;-78
2023/12/10 05:33:23;;;;;;;;;2.33;2.00;;;;;-147.47;100.00;64613.53;4901123;28;29452;-78
2023/12/10 05:35:48;;;;;;;;;5.00;4.00;;;;;-147.47;100.00;64613.53;4913870;29;27902;-80
2023/12/10 05:38:14;;;;;;;;;3.33;2.33;;;;;-147.47;100.00;64613.53;4909373;28;28473;-81
2023/12/10 05:40:39;;;;;;;;;7.33;4.00;;;;;-147.47;100.00;64613.53;4908040;29;28879;-79
2023/12/10 05:43:05;;;;;;;;;6.33;2.00;;;;;-147.47;100.00;64613.53;4898578;29;28459;-79
2023/12/10 05:45:30;;;;;;;;;3.33;2.00;;;;;-147.47;100.00;64613.53;4920762;29;28601;-80
2023/12/10 05:47:55;;;;;;;;;6.00;4.67;;;;;-147.47;100.00;64613.53;4919475;29;28548;-79
2023/12/10 05:50:21;;;;;;;;;5.33;3.00;;;;;-147.47;100.00;64613.53;4921811;28;29751;-80
2023/12/10 05:52:46;;;;;;;;;5.00;2.00;;;;;-147.47;100.00;64613.53;4922775;28;28400;-79
2023/12/10 05:55:12;;;;;;;;;6.67;2.33;;;;;-147.47;100.00;64613.53;4926385;28;28458;-81
2023/12/10 05:57:37;;;;;;;;;5.67;1.00;;;;;-147.47;100.00;64613.53;4924375;29;28466;-81
2023/12/10 06:00:04;;;;;;;;;5.33;3.00;;;;;-147.47;100.00;64613.53;4931471;29;27982;-80
2023/12/10 06:02:29;;;;;;;;;4.67;3.67;;;;;-147.47;100.00;64613.53;4931368;28;28233;-78
2023/12/10 06:04:55;;;;;;;;;6.00;1.33;;;;;-147.47;100.00;64613.53;4932624;28;28390;-80
2023/12/10 06:07:20;;;;;;;;;8.67;5.33;;;;;-147.47;100.00;64613.53;4918205;29;28462;-79
2023/12/10 06:09:45;;;;;;;;;5.00;2.00;;;;;-147.47;100.00;64613.53;4912006;29;29923;-79
2023/12/10 06:12:11;;;;;;;;;4.67;3.00;;;;;-147.47;100.00;64613.53;4923068;28;28369;-80
2023/12/10 06:14:36;;;;;;;;;3.00;3.00;;;;;-147.47;100.00;64613.53;4924303;28;28563;-80
2023/12/10 06:17:02;;;;;;;;;6.00;3.00;;;;;-147.47;100.00;64613.53;4918273;29;28600;-80
2023/12/10 06:19:27;;;;;;;;;15.33;3.67;;;;;-147.47;100.00;64613.53;4918616;29;28752;-79
2023/12/10 06:21:52;;;;;;;;;4.67;2.67;;;;;-147.47;100.00;64613.53;4925200;28;28932;-83
2023/12/10 06:24:18;;;;;;;;;5.00;3.00;;;;;-147.47;100.00;64613.53;4920343;28;28095;-78
2023/12/10 06:26:43;;;;;;;;;5.00;3.00;;;;;-147.47;100.00;64613.53;4899595;29;29665;-82
2023/12/10 06:29:10;;;;;;;;;5.00;4.00;;;;;-147.47;100.00;64613.53;4918775;28;28383;-80
2023/12/10 06:31:35;;;;;;;;;1.33;1.33;;;;;-147.47;100.00;64613.53;4910779;29;27995;-79
2023/12/10 06:34:02;;;;;;;;;5.33;2.00;;;;;-147.47;100.00;64613.53;4917368;28;28518;-80
2023/12/10 06:36:27;;;;;;;;;3.67;3.00;;;;;-147.47;100.00;64613.53;4915910;29;28617;-79
2023/12/10 06:38:52;;;;;;;;;5.67;2.33;;;;;-147.47;100.00;64613.53;4911232;29;28703;-80
2023/12/10 06:41:18;;;;;;;;;3.67;1.33;;;;;-147.47;100.00;64613.53;4901959;29;28703;-79
2023/12/10 06:43:43;;;;;;;;;6.67;3.67;;;;;-147.47;100.00;64613.53;4912937;28;28227;-80
2023/12/10 06:46:09;;;;;;;;;5.00;3.00;;;;;-147.47;100.00;64613.53;4913470;29;28125;-82
2023/12/10 06:48:34;;;;;;;;;5.33;3.00;;;;;-147.47;100.00;64613.53;4914191;28;28757;-80
2023/12/10 06:51:02;;;;;;;;;5.67;3.33;;;;;-147.47;100.00;64613.53;4919049;28;28562;-79
2023/12/10 06:53:27;;;;;;;;;6.00;3.67;;;;;-147.47;100.00;64613.53;4908265;28;28685;-79
2023/12/10 06:55:53;;;;;;;;;6.67;2.00;;;;;-147.47;100.00;64613.53;4905529;29;29221;-79
2023/12/10 06:58:18;;;;;;;;;4.67;3.00;;;;;-147.47;100.00;64613.53;4908793;29;29065;-78
2023/12/10 07:00:44;;;;;;;;;12.33;6.00;;;;;-147.47;100.00;64613.53;4911450;28;28810;-79
2023/12/10 07:03:10;;;;;;;;;4.67;4.33;;;;;-147.47;100.00;64613.53;4899020;28;28694;-80
2023/12/10 07:05:36;;;;;;;;;4.67;2.67;;;;;-147.47;100.00;64613.53;4916680;28;28724;-80
2023/12/10 07:08:02;;;;;;;;;10.00;3.00;;;;;-147.47;100.00;64613.53;4908132;29;28934;-81
2023/12/10 07:10:27;;;;;;;;;6.00;1.33;;;;;-147.47;100.00;64613.53;4909556;29;28577;-83
2023/12/10 07:12:54;;;;;;;;;10.33;5.67;;;;;-147.47;100.00;64613.53;4885085;29;28729;-81
2023/12/10 07:15:19;;;;;;;;;4.67;2.00;;;;;-147.47;100.00;64613.53;4910021;29;28989;-79
2023/12/10 07:17:45;;;;;;;;;8.00;4.00;;;;;-147.47;100.00;64613.53;4889343;29;30349;-80
2023/12/10 07:20:11;;;;;;;;;5.33;3.00;;;;;-147.47;100.00;64613.53;4911840;29;28872;-83
2023/12/10 07:22:37;;;;;;;;;9.67;5.00;;;;;-147.47;100.00;64613.53;4894281;29;28898;-83
2023/12/10 07:25:05;;;;;;;;;5.00;2.00;;;;;-147.47;100.00;64613.53;4913986;29;28609;-80
2023/12/10 07:27:31;;;;;;;;;5.67;4.33;;;;;-147.47;100.00;64613.53;4906072;28;28633;-81
2023/12/10 07:29:57;;;;;;;;;4.33;3.33;;;;;-147.47;100.00;64613.53;4910792;28;28628;-80
2023/12/10 07:32:23;;;;;;;;;4.33;3.33;;;;;-147.47;100.00;64613.53;4909224;29;28194;-79
2023/12/10 07:34:48;;;;;;;;;6.00;2.67;;;;;-147.47;100.00;64613.53;4907681;28;28721;-80
2023/12/10 07:37:14;;;;;;;;;8.00;5.67;;;;;-147.47;100.00;64613.53;4909937;29;28597;-79
2023/12/10 07:39:39;;;;;;;;;10.67;4.67;;;;;-147.47;100.00;64613.53;4908281;28;28732;-81
2023/12/10 07:42:04;;;;;;;;;10.33;6.00;;;;;-147.47;100.00;64613.53;4908033;29;28853;-80
2023/12/10 07:44:30;;;;;;;;;13.67;8.67;;;;;-147.47;100.00;64613.53;4897537;29;30718;-79
2023/12/10 07:46:56;;;;;;;;;12.00;9.33;;;;;-147.47;100.00;64613.53;4894119;29;29074;-81
2023/12/10 07:49:22;;;;;;;;;10.67;8.33;;;;;-147.47;100.00;64613.53;4907218;29;28505;-80
2023/12/10 07:51:47;;;;;;;;;10.33;7.00;;;;;-147.47;100.00;64613.53;4894800;29;28558;-79
2023/12/10 07:54:13;;;;;;;;;14.33;10.33;;;;;-147.47;100.00;64613.53;4889138;29;29533;-79
2023/12/10 07:56:38;;;;;;;;;11.33;10.00;;;;;-147.47;100.00;64613.53;4895055;29;31129;-79
2023/12/10 07:59:04;;;;;;;;;10.33;7.67;;;;;-147.47;100.00;64613.53;4900187;28;28622;-78
2023/12/10 08:01:29;;;;;;;;;10.33;8.33;;;;;-147.47;100.00;64613.53;4894896;28;28550;-79
2023/12/10 08:03:54;;;;;;;;;12.00;6.00;;;;;-147.47;100.00;64613.53;4918616;28;29155;-80
2023/12/10 08:06:20;;;;;;;;;11.00;6.00;;;;;-147.47;100.00;64613.53;4894157;29;30969;-80
2023/12/10 08:08:45;;;;;;;;;7.00;3.67;;;;;-147.47;100.00;64613.53;4908245;28;29001;-82
2023/12/10 08:11:11;;;;;;;;;10.33;6.00;;;;;-147.47;100.00;64613.53;4906960;29;28543;-81
2023/12/10 08:13:37;;;;;;;;;12.67;10.00;;;;;-147.47;100.00;64613.53;4902486;29;28900;-81
2023/12/10 08:16:02;;;;;;;;;8.00;3.00;;;;;-147.47;100.00;64613.53;4904317;28;30455;-81
2023/12/10 08:18:28;;;;;;;;;6.33;4.00;;;;;-147.47;100.00;64613.53;4891873;28;28753;-82
2023/12/10 08:20:54;;;;;;;;;17.67;11.33;;;;;-147.47;100.00;64613.53;4906455;29;28568;-82
2023/12/10 08:23:19;;;;;;;;;7.00;4.00;;;;;-147.47;100.00;64613.53;4893522;29;28595;-80
2023/12/10 08:25:45;;;;;;;;;10.33;6.00;;;;;-147.47;100.00;64613.53;4914933;28;28766;-80
2023/12/10 08:28:10;;;;;;;;;10.33;5.67;;;;;-147.47;100.00;64613.53;4901594;28;29144;-81
2023/12/10 08:30:37;;;;;;;;;21.00;15.33;;;;;-147.47;100.00;64613.53;4894846;28;28467;-80
2023/12/10 08:33:02;;;;;;;;;8.67;7.67;;;;;-147.47;100.00;64613.53;4896165;29;29523;-80
2023/12/10 08:35:29;;;;;;;;;16.33;9.00;;;;;-147.47;100.00;64613.53;4915378;28;29414;-82
2023/12/10 08:37:55;;;;;;;;;13.33;7.33;;;;;-147.47;100.00;64613.53;4915751;28;28531;-81
2023/12/10 08:40:20;;;;;;;;;10.67;7.00;;;;;-147.47;100.00;64613.53;4896532;28;28557;-81
2023/12/10 08:42:49;;;;;;;;;8.67;7.00;;;;;-147.47;100.00;64613.53;4911169;28;29528;-79
2023/12/10 08:45:14;;;;;;;;;11.33;5.00;;;;;-147.47;100.00;64613.53;4906378;29;28577;-79
2023/12/10 08:47:40;;;;;;;;;9.00;6.00;;;;;-147.47;100.00;64613.53;4906872;28;28493;-80
2023/12/10 08:50:08;;;;;;;;;13.00;4.67;;;;;-147.47;100.00;64613.53;4911118;28;28576;-78
2023/12/10 08:52:34;;;;;;;;;22.00;15.67;;;;;-147.47;100.00;64613.53;4893769;29;29011;-79
2023/12/10 08:55:01;;;;;;;;;13.33;9.33;;;;;-147.47;100.00;64613.53;4911640;28;28801;-80
2023/12/10 08:57:26;;;;;;;;;11.33;8.67;;;;;-147.47;100.00;64613.53;4910219;29;28648;-79
2023/12/10 08:59:52;;;;;;;;;14.33;13.33;;;;;-147.47;100.00;64613.53;4909737;28;28888;-80
2023/12/10 09:02:19;;;;;;;;;8.33;7.00;;;;;-147.47;100.00;64613.53;4894320;28;29480;-80
2023/12/10 09:04:46;;;;;;;;;4.67;3.67;;;;;-147.47;100.00;64613.53;4901517;29;28696;-80
2023/12/10 09:07:11;;;;;;;;;8.33;6.67;;;;;-147.47;100.00;64613.53;4898390;28;28796;-79
2023/12/10 09:09:37;;;;;;;;;3.67;3.67;;;;;-147.47;100.00;64613.53;4910023;28;28574;-79
2023/12/10 09:12:02;;;;;;;;;7.33;7.33;;;;;-147.47;100.00;64613.53;4913356;28;28704;-76
2023/12/10 09:14:28;;;;;;;;;2.00;2.00;;;;;-147.47;100.00;64613.53;4907437;29;28765;-80
2023/12/10 09:16:55;;;;;;;;;3.67;2.00;;;;;-147.47;100.00;64613.53;4909612;28;28801;-77
2023/12/10 09:19:21;;;;;;;;;6.67;5.67;;;;;-147.47;100.00;64613.53;4893607;29;28815;-76
2023/12/10 09:21:47;;;;;;;;;15.33;7.67;;;;;-147.47;100.00;64613.53;4908512;28;28526;-77
2023/12/10 09:24:13;;;;;;;;;13.67;5.67;;;;;-147.47;100.00;64613.53;4909133;28;29575;-76
2023/12/10 09:26:39;;;;;;;;;6.67;4.67;;;;;-147.47;100.00;64613.53;4912721;28;28505;-78
2023/12/10 09:29:05;;;;;;;;;6.67;3.33;;;;;-147.47;100.00;64613.53;4895352;28;28682;-80
2023/12/10 09:31:30;;;;;;;;;6.67;5.67;;;;;-147.47;100.00;64613.53;4895401;29;29244;-77
2023/12/10 09:33:55;;;;;;;;;10.33;6.33;;;;;-147.47;100.00;64613.53;4908808;29;28601;-77
2023/12/10 09:36:21;;;;;;;;;6.67;5.00;;;;;-147.47;100.00;64613.53;4903778;28;29531;-77
2023/12/10 09:38:49;;;;;;;;;5.67;2.67;;;;;-147.47;100.00;64613.53;4910066;28;28920;-77
2023/12/10 09:41:15;;;;;;;;;6.33;4.00;;;;;-147.47;100.00;64613.53;4906224;29;29055;-79
2023/12/10 09:43:40;;;;;;;;;6.67;5.33;;;;;-147.47;100.00;64613.53;4900982;29;28860;-75
2023/12/10 09:46:08;;;;;;;;;5.00;2.00;;;;;-147.47;100.00;64613.53;4889860;28;28641;-77
2023/12/10 09:48:34;;;;;;;;;7.67;4.00;;;;;-147.47;100.00;64613.53;4893793;29;28576;-74
2023/12/10 09:51:00;;;;;;;;;9.67;6.00;;;;;-147.47;100.00;64613.53;4894076;29;28627;-76
2023/12/10 09:53:27;;;;;;;;;12.67;11.00;;;;;-147.47;100.00;64613.53;4907189;28;28549;-75
2023/12/10 09:55:52;;;;;;;;;9.33;5.33;;;;;-147.47;100.00;64613.53;4906821;29;28589;-76
2023/12/10 09:58:17;;;;;;;;;4.67;2.67;;;;;-147.47;100.00;64613.53;4910293;28;28903;-75
2023/12/10 10:00:43;;;;;;;;;7.67;4.67;;;;;-147.47;100.00;64613.53;4890656;28;29129;-75
2023/12/10 10:03:10;;;;;;;;;8.33;5.33;;;;;-147.47;100.00;64613.53;4907842;28;28974;-75
2023/12/10 10:05:36;;;;;;;;;9.33;3.33;;;;;-147.47;100.00;64613.53;4902634;28;28778;-75
2023/12/10 10:08:01;;;;;;;;;9.00;5.33;;;;;-147.47;100.00;64613.53;4909052;29;28657;-76
2023/12/10 10:10:27;;;;;;;;;7.00;6.33;;;;;-147.47;100.00;64613.53;4907639;29;28697;-75
2023/12/10 10:13:12;;;;;;;;;10.33;6.67;;;;;-147.47;100.00;64613.53;4908157;29;28840;-75
2023/12/10 10:15:38;;;;;;;;;15.67;6.67;;;;;-147.47;100.00;64613.53;4905558;28;28678;-76
2023/12/10 10:18:05;;;;;;;;;7.67;6.33;;;;;-147.47;100.00;64613.53;4908627;29;28605;-75
2023/12/10 10:20:30;;;;;;;;;3.67;3.67;;;;;-147.47;100.00;64613.53;4907000;29;29101;-74
2023/12/10 10:22:56;;;;;;;;;7.00;5.33;;;;;-147.47;100.00;64613.53;4907679;29;29200;-77
2023/12/10 10:25:21;;;;;;;;;11.33;6.67;;;;;-147.47;100.00;64613.53;4911162;28;28546;-74
2023/12/10 10:27:50;;;;;;;;;10.33;7.67;;;;;-147.47;100.00;64613.53;4910646;28;28790;-76
2023/12/10 10:30:15;;;;;;;;;13.33;8.00;;;;;-147.47;100.00;64613.53;4906306;29;29463;-76
2023/12/10 10:32:43;;;;;;;;;4.67;3.00;;;;;-147.47;100.00;64613.53;4904197;28;29351;-75
2023/12/10 10:35:08;;;;;;;;;6.33;6.33;;;;;-147.47;100.00;64613.53;4908185;28;28601;-76
2023/12/10 10:37:34;;;;;;;;;7.33;5.33;;;;;-147.47;100.00;64613.53;4908387;28;28544;-75
2023/12/10 10:39:59;;;;;;;;;8.00;5.33;;;;;-147.47;100.00;64613.53;4891109;29;29140;-76
2023/12/10 10:42:25;;;;;;;;;4.00;2.67;;;;;-147.47;100.00;64613.53;4904217;29;30274;-74
2023/12/10 10:44:50;;;;;;;;;7.33;5.00;;;;;-147.47;100.00;64613.53;4907240;28;28889;-76
2023/12/10 10:47:18;;;;;;;;;6.00;5.67;;;;;-147.47;100.00;64613.53;4905881;28;28992;-75
2023/12/10 10:49:47;;;;;;;;;4.00;2.33;;;;;-147.47;100.00;64613.53;4896375;29;28578;-75
2023/12/10 10:52:23;;;;;;;;;9.33;6.00;;;;;-147.47;100.00;64613.53;4908320;28;28723;-76
2023/12/10 10:54:53;;;;;;;;;9.67;4.00;;;;;-147.47;100.00;64613.53;4905845;28;28595;-77
2023/12/10 10:57:36;;;;;;;;;4.00;4.00;;;;;-147.47;100.00;64613.53;4907105;28;28608;-78
2023/12/10 11:00:30;;;;;;;;;4.00;1.67;;;;;-147.47;100.00;64613.53;4908484;28;29053;-77